Barretos, Brazil
Current Conditions -  °F | °C
As of 12:00 AM on Thursday 23 Oct 2014 (Local Time) from SBCF Reporting Station
Clear Clear  
Wind Chill: 66°   Ceiling: Unl
Heat Index: 66°   Visibility: 6mi
Dew Point: 57°   Wind: 14mph
Humidity: 73%   Direction: 90°E
Pressure: 30.21"   Gusts: NA
Location:  20.28°S, 43.17°W
Report Text: SBCF 230200Z 09012KT CAVOK 19/14 Q1023
Loading
Personal Weather Stations






























Interactive Weather Map
Tropical Storm Tracking
New forecast layout! Learn more

10-Day Weather Forecast

Advertisements
Track Severe Weather on mobile